Time;durP1;ratioP1;P1;durP2;ratioP2;P2;SDS_P1;SDS_P2;PMS_P1;PMS_P2;Temp;Humidity;BMP_temperature;BMP_pressure;BME280_temperature;BME280_humidity;BME280_pressure;Samples;Min_cycle;Max_cycle;Signal;HPM_P1;HPM_P2
2022/01/19 00:01:31;;;;;;;95.18;38.13;;;1.50;99.90;;;;;;5051699;28;20602;-75
2022/01/19 00:03:56;;;;;;;101.60;39.80;;;1.50;99.90;;;;;;5051821;28;20025;-75
2022/01/19 00:06:23;;;;;;;103.28;40.85;;;1.50;99.90;;;;;;5052044;28;20025;-75
2022/01/19 00:08:49;;;;;;;108.25;40.40;;;1.50;99.90;;;;;;5051678;28;20032;-75
2022/01/19 00:11:16;;;;;;;108.03;39.30;;;1.50;99.90;;;;;;5051812;28;20099;-75
2022/01/19 00:13:42;;;;;;;83.80;33.72;;;1.50;99.90;;;;;;5049150;28;20032;-75
2022/01/19 00:16:08;;;;;;;88.18;35.45;;;1.50;99.90;;;;;;5051836;28;20013;-75
2022/01/19 00:18:34;;;;;;;86.88;37.22;;;1.50;99.90;;;;;;5051570;28;20071;-75
2022/01/19 00:21:00;;;;;;;113.60;43.38;;;1.60;99.90;;;;;;5051477;28;20029;-75
2022/01/19 00:23:26;;;;;;;106.57;47.13;;;1.50;99.90;;;;;;5051913;28;20442;-75
2022/01/19 00:25:54;;;;;;;113.45;42.97;;;1.60;99.90;;;;;;5051569;28;20025;-75
2022/01/19 00:28:20;;;;;;;106.72;42.33;;;1.60;99.90;;;;;;5051350;28;20068;-75
2022/01/19 00:30:46;;;;;;;107.45;43.15;;;1.60;99.90;;;;;;5051893;28;20048;-74
2022/01/19 00:33:15;;;;;;;113.00;44.08;;;1.50;99.90;;;;;;5051600;28;20051;-75
2022/01/19 00:35:41;;;;;;;143.65;62.08;;;1.50;99.90;;;;;;5048695;28;20425;-74
2022/01/19 00:38:08;;;;;;;117.00;51.05;;;1.50;99.90;;;;;;5051746;28;20028;-74
2022/01/19 00:40:36;;;;;;;118.03;47.55;;;1.50;99.90;;;;;;5051770;28;20033;-74
2022/01/19 00:43:01;;;;;;;122.75;49.70;;;1.50;99.90;;;;;;5048981;28;20106;-74
2022/01/19 00:45:27;;;;;;;127.82;52.65;;;1.50;99.90;;;;;;5051693;28;20399;-74
2022/01/19 00:47:53;;;;;;;114.15;47.65;;;1.50;99.90;;;;;;5054465;28;20041;-75
2022/01/19 00:50:22;;;;;;;114.88;46.40;;;1.50;99.90;;;;;;5055738;28;20464;-75
2022/01/19 00:52:51;;;;;;;128.82;50.33;;;1.40;99.90;;;;;;5055265;28;20021;-75
2022/01/19 00:55:18;;;;;;;126.70;47.03;;;1.30;99.90;;;;;;5055261;28;20025;-75
2022/01/19 00:57:43;;;;;;;157.50;56.53;;;1.30;99.90;;;;;;5054724;28;20067;-74
2022/01/19 01:00:15;;;;;;;121.25;46.13;;;1.30;99.90;;;;;;5054935;28;20021;-74
2022/01/19 01:02:41;;;;;;;;;;;1.20;99.90;;;;;;5052802;28;20108;-74
2022/01/19 01:05:07;;;;;;;99.30;38.13;;;1.10;99.90;;;;;;5054897;28;19988;-74
2022/01/19 01:07:34;;;;;;;112.63;38.92;;;1.10;99.90;;;;;;5054646;28;20060;-74
2022/01/19 01:10:00;;;;;;;108.88;40.50;;;1.00;99.90;;;;;;5054524;28;20020;-74
2022/01/19 01:12:42;;;;;;;103.45;38.25;;;0.90;99.90;;;;;;5054740;28;20025;-74
2022/01/19 01:20:33;;;;;;;120.55;45.33;;;0.70;99.90;;;;;;5053575;28;20021;-74
2022/01/19 01:22:59;;;;;;;123.50;47.17;;;0.70;99.90;;;;;;5054776;28;20044;-74
2022/01/19 01:25:25;;;;;;;159.55;52.78;;;0.70;99.90;;;;;;5054514;28;20029;-74
2022/01/19 01:27:50;;;;;;;146.32;53.80;;;0.60;99.90;;;;;;5054677;28;20028;-74
2022/01/19 01:30:17;;;;;;;92.80;39.17;;;0.60;99.90;;;;;;5054613;28;20033;-74
2022/01/19 01:32:42;;;;;;;99.88;41.00;;;0.50;99.90;;;;;;5054090;28;20064;-74
2022/01/19 01:35:09;;;;;;;94.97;36.72;;;0.50;99.90;;;;;;5054583;28;20057;-74
2022/01/19 01:37:35;;;;;;;89.50;36.85;;;0.40;99.90;;;;;;5054508;28;20484;-74
2022/01/19 01:40:02;;;;;;;93.88;34.72;;;0.30;99.90;;;;;;5054551;28;20111;-74
2022/01/19 01:42:28;;;;;;;88.65;34.63;;;0.30;99.90;;;;;;5054031;28;20029;-74
2022/01/19 01:44:58;;;;;;;103.03;39.53;;;0.20;99.90;;;;;;5054105;28;20028;-74
2022/01/19 01:47:24;;;;;;;94.20;37.03;;;0.20;99.90;;;;;;5051600;28;20029;-74
2022/01/19 01:55:13;;;;;;;93.60;36.67;;;0.00;99.90;;;;;;5035222;28;20036;-74
2022/01/19 01:57:39;;;;;;;82.07;31.77;;;-0.10;99.90;;;;;;5035640;28;20033;-74
2022/01/19 02:00:08;;;;;;;97.00;37.05;;;-0.20;99.90;;;;;;5035182;28;20052;-74
2022/01/19 02:02:34;;;;;;;93.95;36.40;;;-0.20;99.90;;;;;;5035439;28;20048;-74
2022/01/19 02:05:00;;;;;;;96.68;36.50;;;-0.30;99.90;;;;;;5035509;28;20446;-75
2022/01/19 02:09:55;;;;;;;165.18;50.60;;;-0.30;99.90;;;;;;5035696;28;20025;-74
2022/01/19 02:23:38;;;;;;;183.52;64.63;;;-0.40;99.90;;;;;;5035089;28;20216;-75
2022/01/19 02:26:11;;;;;;;154.23;54.65;;;-0.40;99.90;;;;;;5035134;28;20031;-74
2022/01/19 02:41:52;;;;;;;136.15;50.85;;;-0.50;99.90;;;;;;5034632;28;20541;-75
2022/01/19 02:49:55;;;;;;;96.95;37.17;;;-0.60;99.90;;;;;;5034487;28;20046;-75
2022/01/19 02:52:22;;;;;;;142.07;60.13;;;-0.60;99.90;;;;;;5034512;28;20057;-74
2022/01/19 02:54:49;;;;;;;121.93;51.35;;;-0.60;99.90;;;;;;5033964;28;20044;-74
2022/01/19 02:57:16;;;;;;;124.75;56.20;;;-0.60;99.90;;;;;;5034069;28;20043;-74
2022/01/19 03:10:33;;;;;;;97.05;40.97;;;-0.70;99.90;;;;;;5033453;28;20160;-74
2022/01/19 03:12:59;;;;;;;111.55;43.22;;;-0.70;99.90;;;;;;5033852;28;20103;-74
2022/01/19 03:15:25;;;;;;;105.85;42.47;;;-0.70;99.90;;;;;;5034222;28;20036;-74
2022/01/19 03:17:53;;;;;;;82.68;33.55;;;-0.70;99.90;;;;;;5033994;28;20480;-74
2022/01/19 03:20:18;;;;;;;65.50;23.35;;;-0.80;99.90;;;;;;5033791;28;20052;-74
2022/01/19 03:23:01;;;;;;;66.60;22.73;;;-0.80;99.90;;;;;;5033900;28;20061;-75
2022/01/19 03:25:27;;;;;;;61.42;24.80;;;-0.70;99.90;;;;;;5034087;28;20041;-74
2022/01/19 03:27:53;;;;;;;73.50;25.85;;;-0.70;99.90;;;;;;5033591;28;20025;-74
2022/01/19 03:30:20;;;;;;;89.35;36.08;;;-0.70;99.90;;;;;;5033797;28;20033;-74
2022/01/19 03:32:46;;;;;;;81.65;27.55;;;-0.70;99.90;;;;;;5033905;28;20032;-74
2022/01/19 03:35:13;;;;;;;91.35;30.48;;;-0.70;99.90;;;;;;5033853;28;20029;-74
2022/01/19 03:37:39;;;;;;;87.22;33.05;;;-0.70;99.90;;;;;;5033656;28;20047;-74
2022/01/19 03:40:07;;;;;;;83.00;29.92;;;-0.70;99.90;;;;;;5033589;28;20445;-74
2022/01/19 03:42:35;;;;;;;100.22;35.35;;;-0.80;99.90;;;;;;5033833;28;20017;-74
2022/01/19 03:45:01;;;;;;;105.93;37.17;;;-0.80;99.90;;;;;;5033255;28;20393;-74
2022/01/19 03:47:28;;;;;;;98.95;34.95;;;-0.80;99.90;;;;;;5033458;28;20021;-75
2022/01/19 03:49:53;;;;;;;83.13;31.55;;;-0.80;99.90;;;;;;5033928;28;20080;-75
2022/01/19 03:52:19;;;;;;;88.57;32.50;;;-0.80;99.90;;;;;;5033522;28;20022;-75
2022/01/19 03:54:45;;;;;;;70.93;28.17;;;-0.80;99.90;;;;;;5033501;28;20036;-74
2022/01/19 03:57:12;;;;;;;75.75;27.90;;;-0.90;99.90;;;;;;5033786;28;20069;-74
2022/01/19 03:59:38;;;;;;;104.35;34.90;;;-0.80;99.90;;;;;;5033245;28;20021;-74
2022/01/19 04:02:05;;;;;;;96.80;34.75;;;-0.90;99.90;;;;;;5033564;28;20025;-74
2022/01/19 04:04:49;;;;;;;89.43;31.42;;;-0.90;99.90;;;;;;5033355;28;20029;-74
2022/01/19 04:07:15;;;;;;;97.85;35.97;;;-0.90;99.90;;;;;;5033601;28;20033;-74
2022/01/19 04:09:43;;;;;;;105.70;35.50;;;-0.90;99.90;;;;;;5033468;28;20026;-74
2022/01/19 04:12:17;;;;;;;88.90;33.80;;;-0.90;99.90;;;;;;5033578;28;20041;-74
2022/01/19 04:14:43;;;;;;;87.55;31.88;;;-0.90;99.90;;;;;;5033508;28;20030;-75
2022/01/19 04:17:12;;;;;;;87.47;31.15;;;-1.00;99.90;;;;;;5033385;28;20032;-74
2022/01/19 04:19:46;;;;;;;80.68;31.65;;;-1.00;99.90;;;;;;5033020;28;20468;-74
2022/01/19 04:22:17;;;;;;;89.85;32.42;;;-1.00;99.90;;;;;;5035351;28;20108;-74
2022/01/19 04:24:43;;;;;;;93.38;32.28;;;-1.00;99.90;;;;;;5037138;28;20030;-75
2022/01/19 04:29:52;;;;;;;84.75;34.03;;;-1.10;99.90;;;;;;5037226;28;20029;-75
2022/01/19 04:32:24;;;;;;;98.88;35.10;;;-1.10;99.90;;;;;;5037109;28;20037;-74
2022/01/19 04:34:51;;;;;;;86.47;34.95;;;-1.10;99.90;;;;;;5036898;28;20037;-75
2022/01/19 04:48:25;;;;;;;127.30;45.60;;;-1.10;99.90;;;;;;5036763;28;20428;-74
2022/01/19 05:02:36;;;;;;;81.95;31.55;;;-1.30;99.90;;;;;;5036585;28;20075;-74
2022/01/19 05:14:48;;;;;;;72.93;30.88;;;-1.40;99.90;;;;;;5036105;28;20095;-74
2022/01/19 05:17:14;;;;;;;115.93;42.60;;;-1.40;99.90;;;;;;5036341;28;20412;-74
2022/01/19 05:19:40;;;;;;;183.85;66.45;;;-1.40;99.90;;;;;;5036275;28;20025;-75
2022/01/19 05:22:05;;;;;;;232.50;84.20;;;-1.40;99.90;;;;;;5036440;28;20072;-74
2022/01/19 05:24:31;;;;;;;251.02;88.20;;;-1.50;99.90;;;;;;5036234;28;20033;-74
2022/01/19 05:26:57;;;;;;;253.77;91.60;;;-1.50;99.90;;;;;;5036420;28;20075;-74
2022/01/19 05:29:23;;;;;;;237.05;87.95;;;-1.50;99.90;;;;;;5035565;28;20032;-74
2022/01/19 05:31:48;;;;;;;219.55;86.97;;;-1.40;99.90;;;;;;5036230;28;20021;-74
2022/01/19 05:34:14;;;;;;;234.25;85.63;;;-1.50;99.90;;;;;;5035674;28;20025;-74
2022/01/19 05:36:40;;;;;;;210.48;81.10;;;-1.50;99.90;;;;;;5035553;28;20124;-74
2022/01/19 05:39:06;;;;;;;212.07;79.50;;;-1.50;99.90;;;;;;5036172;28;20075;-74
2022/01/19 05:41:32;;;;;;;206.05;78.53;;;-1.50;99.90;;;;;;5035937;28;20394;-74
2022/01/19 05:43:58;;;;;;;208.07;78.82;;;-1.50;99.90;;;;;;5035450;28;20029;-75
2022/01/19 05:46:24;;;;;;;202.18;78.82;;;-1.60;99.90;;;;;;5035756;28;20025;-75
2022/01/19 05:48:50;;;;;;;234.52;94.75;;;-1.60;99.90;;;;;;5035490;28;20065;-74
2022/01/19 05:51:16;;;;;;;237.10;90.38;;;-1.60;99.90;;;;;;5035394;28;20460;-75
2022/01/19 05:53:42;;;;;;;232.73;90.13;;;-1.60;99.90;;;;;;5035537;28;20029;-75
2022/01/19 05:56:08;;;;;;;223.02;85.90;;;-1.60;99.90;;;;;;5036160;28;20029;-74
2022/01/19 05:58:34;;;;;;;224.18;88.80;;;-1.60;99.90;;;;;;5035416;28;20030;-75
2022/01/19 06:01:00;;;;;;;215.85;87.20;;;-1.60;99.90;;;;;;5035241;28;20034;-75
2022/01/19 06:03:26;;;;;;;210.95;88.53;;;-1.60;99.90;;;;;;5035495;28;20030;-75
2022/01/19 06:05:52;;;;;;;229.75;97.90;;;-1.70;99.90;;;;;;5034181;28;20125;-75
2022/01/19 06:10:54;;;;;;;259.83;100.53;;;-1.70;99.90;;;;;;5034566;28;20040;-74
2022/01/19 06:13:22;;;;;;;244.52;98.50;;;-1.60;99.90;;;;;;5034720;28;20065;-74
2022/01/19 06:15:48;;;;;;;239.00;95.72;;;-1.70;99.90;;;;;;5034550;28;20040;-74
2022/01/19 06:18:16;;;;;;;238.32;101.78;;;-1.70;99.90;;;;;;5034673;28;20060;-74
2022/01/19 06:20:44;;;;;;;248.30;102.63;;;-1.60;99.90;;;;;;5034351;28;20029;-74
2022/01/19 06:23:10;;;;;;;275.90;109.38;;;-1.60;99.90;;;;;;5035082;28;20071;-74
2022/01/19 06:25:37;;;;;;;288.42;125.55;;;-1.60;99.90;;;;;;5034908;28;20100;-74
2022/01/19 06:28:03;;;;;;;299.27;122.53;;;-1.60;99.90;;;;;;5034781;28;20354;-74
2022/01/19 06:30:29;;;;;;;230.38;95.80;;;-1.60;99.90;;;;;;5034901;28;20518;-73
2022/01/19 06:32:55;;;;;;;235.63;88.47;;;-1.50;99.90;;;;;;5034835;28;20571;-74
2022/01/19 06:35:21;;;;;;;300.77;116.70;;;-1.50;99.90;;;;;;5035176;28;20112;-74
2022/01/19 06:37:48;;;;;;;211.93;79.15;;;-1.50;99.90;;;;;;5034812;28;20044;-74
2022/01/19 06:40:15;;;;;;;119.03;46.28;;;-1.50;99.90;;;;;;5034349;28;20471;-75
2022/01/19 06:42:42;;;;;;;110.63;45.00;;;-1.50;99.90;;;;;;5035141;28;20057;-74
2022/01/19 06:45:09;;;;;;;144.35;53.53;;;-1.40;99.90;;;;;;5034462;28;20040;-74
2022/01/19 06:47:36;;;;;;;478.45;171.55;;;-1.40;99.90;;;;;;5034020;28;20018;-74
2022/01/19 06:50:03;;;;;;;377.38;129.35;;;-1.30;99.90;;;;;;5034651;28;20025;-75
2022/01/19 06:52:28;;;;;;;537.97;165.57;;;-1.30;99.90;;;;;;5034369;28;20454;-75
2022/01/19 06:54:54;;;;;;;556.72;163.82;;;-1.20;99.90;;;;;;5033988;28;20025;-74
2022/01/19 06:57:20;;;;;;;311.15;98.72;;;-1.20;99.90;;;;;;5034434;28;20120;-75
2022/01/19 06:59:48;;;;;;;327.90;114.15;;;-1.10;99.90;;;;;;5033644;28;20034;-75
2022/01/19 07:02:14;;;;;;;239.82;93.75;;;-1.00;99.90;;;;;;5032621;28;20033;-75
2022/01/19 07:04:47;;;;;;;280.80;112.30;;;-0.60;99.90;;;;;;5033517;28;20044;-75
2022/01/19 07:07:12;;;;;;;173.20;74.75;;;-0.20;99.90;;;;;;5048343;28;20395;-76
2022/01/19 07:09:38;;;;;;;153.98;71.40;;;0.10;99.90;;;;;;5054245;28;20025;-76
2022/01/19 07:12:04;;;;;;;122.68;59.13;;;0.40;99.90;;;;;;5054004;28;20541;-76
2022/01/19 07:14:30;;;;;;;103.80;49.42;;;0.70;99.90;;;;;;5053927;28;20037;-75
2022/01/19 07:16:56;;;;;;;83.47;37.38;;;1.10;99.90;;;;;;5053877;28;20146;-76
2022/01/19 07:19:22;;;;;;;88.82;38.65;;;1.30;99.90;;;;;;5054241;28;20151;-76
2022/01/19 07:21:47;;;;;;;137.40;64.43;;;1.50;99.90;;;;;;5053834;28;20032;-76
2022/01/19 07:24:14;;;;;;;110.32;54.25;;;1.70;99.90;;;;;;5053828;28;20029;-76
2022/01/19 07:26:40;;;;;;;101.85;47.75;;;2.00;99.90;;;;;;5054153;28;20670;-76
2022/01/19 07:29:06;;;;;;;105.72;52.75;;;2.30;99.90;;;;;;5053622;28;20025;-76
2022/01/19 07:31:32;;;;;;;168.07;89.32;;;2.40;99.90;;;;;;5053840;28;20113;-77
2022/01/19 07:33:58;;;;;;;151.00;64.15;;;2.50;99.90;;;;;;5053518;28;20040;-76
2022/01/19 07:36:23;;;;;;;161.75;67.68;;;2.50;99.90;;;;;;5053380;28;20186;-76
2022/01/19 07:38:49;;;;;;;158.27;67.45;;;2.40;99.90;;;;;;5051485;28;20029;-76
2022/01/19 07:41:15;;;;;;;173.40;70.90;;;2.50;99.90;;;;;;5051259;28;20546;-76
2022/01/19 07:43:41;;;;;;;159.73;68.80;;;2.50;99.90;;;;;;5052509;28;20470;-76
2022/01/19 07:46:07;;;;;;;186.05;76.53;;;2.40;99.90;;;;;;5053048;28;20033;-76
2022/01/19 07:48:32;;;;;;;195.98;83.30;;;2.50;99.90;;;;;;5053064;28;20045;-76
2022/01/19 07:50:58;;;;;;;194.88;84.93;;;2.70;99.90;;;;;;5052647;28;20029;-76
2022/01/19 07:53:24;;;;;;;198.65;95.25;;;2.80;99.90;;;;;;5052363;28;20032;-76
2022/01/19 07:55:50;;;;;;;221.13;105.28;;;3.00;99.90;;;;;;5054119;28;20074;-76
2022/01/19 07:58:16;;;;;;;263.40;116.35;;;3.20;99.90;;;;;;5059339;28;20029;-76
2022/01/19 08:00:42;;;;;;;292.05;125.43;;;3.20;99.90;;;;;;5059761;28;20025;-76
2022/01/19 08:03:09;;;;;;;240.10;104.82;;;3.20;99.90;;;;;;5059118;28;20032;-76
2022/01/19 08:05:35;;;;;;;226.50;99.40;;;3.20;99.90;;;;;;5059468;28;20033;-76
2022/01/19 08:08:04;;;;;;;222.40;93.25;;;3.30;99.90;;;;;;5059480;28;20111;-77
2022/01/19 08:10:31;;;;;;;202.70;84.65;;;3.40;99.90;;;;;;5059400;28;20376;-77
2022/01/19 08:13:01;;;;;;;175.90;68.65;;;3.30;99.90;;;;;;5059773;28;20052;-77
2022/01/19 08:15:27;;;;;;;164.93;66.20;;;3.50;99.90;;;;;;5059344;28;20523;-77
2022/01/19 08:17:53;;;;;;;134.40;56.20;;;3.80;99.90;;;;;;5059326;28;20103;-77
2022/01/19 08:20:19;;;;;;;117.40;45.15;;;3.70;99.90;;;;;;5059179;28;20025;-77
2022/01/19 08:22:46;;;;;;;104.43;44.50;;;3.70;99.90;;;;;;5059491;28;20103;-78
2022/01/19 08:25:12;;;;;;;89.07;36.60;;;3.80;99.90;;;;;;5058679;28;20032;-77
2022/01/19 08:27:38;;;;;;;120.18;51.22;;;3.70;99.90;;;;;;5058976;28;20021;-77
2022/01/19 08:30:09;;;;;;;80.10;38.03;;;3.80;99.90;;;;;;5059374;28;20039;-77
2022/01/19 08:32:35;;;;;;;106.47;46.42;;;3.60;99.90;;;;;;5059099;28;20017;-77
2022/01/19 08:35:03;;;;;;;125.55;51.58;;;3.60;99.90;;;;;;5059103;28;20025;-77
2022/01/19 08:37:29;;;;;;;89.45;37.58;;;3.80;99.90;;;;;;5058879;28;20025;-77
2022/01/19 08:39:55;;;;;;;95.95;38.08;;;3.80;99.90;;;;;;5059175;28;20032;-77
2022/01/19 08:42:21;;;;;;;87.00;36.63;;;3.80;99.90;;;;;;5059238;28;20029;-77
2022/01/19 08:44:47;;;;;;;90.63;36.40;;;3.70;99.90;;;;;;5058825;28;20033;-76
2022/01/19 08:47:14;;;;;;;75.57;29.85;;;3.80;99.90;;;;;;5058777;28;20028;-77
2022/01/19 08:49:40;;;;;;;93.97;32.88;;;3.90;99.90;;;;;;5059308;28;20045;-78
2022/01/19 08:52:06;;;;;;;97.97;34.05;;;3.90;99.90;;;;;;5058887;28;20025;-77
2022/01/19 08:54:33;;;;;;;89.32;33.70;;;4.00;99.90;;;;;;5059131;28;20087;-77
2022/01/19 08:57:04;;;;;;;91.90;33.90;;;4.10;99.90;;;;;;5059057;28;20108;-77
2022/01/19 08:59:30;;;;;;;73.03;26.23;;;4.30;99.90;;;;;;5058937;28;20032;-77
2022/01/19 09:01:57;;;;;;;57.13;25.92;;;4.40;99.90;;;;;;5059463;28;20060;-77
2022/01/19 09:04:24;;;;;;;74.53;27.02;;;4.70;99.90;;;;;;5058496;28;20093;-77
2022/01/19 09:06:50;;;;;;;65.40;25.88;;;4.70;99.90;;;;;;5057758;28;20024;-77
2022/01/19 09:09:16;;;;;;;88.32;31.70;;;4.60;99.90;;;;;;5055474;28;20029;-77
2022/01/19 09:11:43;;;;;;;100.70;35.72;;;4.80;99.90;;;;;;5055860;28;20032;-77
2022/01/19 09:14:10;;;;;;;72.22;28.73;;;4.80;99.90;;;;;;5055475;28;20452;-77
2022/01/19 09:16:37;;;;;;;66.10;26.90;;;4.80;99.90;;;;;;5055687;28;20025;-77
2022/01/19 09:19:04;;;;;;;59.55;24.02;;;4.90;99.90;;;;;;5055468;28;20053;-77
2022/01/19 09:21:31;;;;;;;56.83;22.60;;;4.90;99.90;;;;;;5055382;28;20025;-77
2022/01/19 09:23:57;;;;;;;52.97;21.25;;;4.90;99.90;;;;;;5055596;28;20025;-77
2022/01/19 09:26:23;;;;;;;68.45;22.88;;;5.10;99.90;;;;;;5054998;28;20021;-78
2022/01/19 09:28:48;;;;;;;58.40;21.13;;;5.20;99.90;;;;;;5055125;28;20086;-78
2022/01/19 09:31:17;;;;;;;72.78;30.90;;;5.10;99.90;;;;;;5054820;28;20503;-78
2022/01/19 09:33:52;;;;;;;66.78;26.40;;;5.40;99.90;;;;;;5053876;28;20087;-78
2022/01/19 09:36:32;;;;;;;50.65;20.55;;;5.60;99.90;;;;;;5055584;28;20064;-78
2022/01/19 09:38:58;;;;;;;39.80;15.00;;;5.80;99.90;;;;;;5055055;28;20388;-77
2022/01/19 09:41:25;;;;;;;36.20;14.75;;;5.70;99.90;;;;;;5054766;28;20739;-77
2022/01/19 09:43:51;;;;;;;44.85;15.15;;;6.00;99.90;;;;;;5055250;28;20032;-77
2022/01/19 09:46:17;;;;;;;69.65;25.90;;;6.00;99.90;;;;;;5054906;28;20025;-77
2022/01/19 09:48:43;;;;;;;46.28;17.50;;;6.20;99.90;;;;;;5054906;28;20104;-77
2022/01/19 09:51:09;;;;;;;55.60;18.83;;;6.40;98.80;;;;;;5054757;28;20421;-77
2022/01/19 09:53:35;;;;;;;42.88;15.65;;;6.40;96.70;;;;;;5055033;28;20460;-77
2022/01/19 09:56:03;;;;;;;46.30;17.48;;;6.70;96.30;;;;;;5054830;28;20044;-77
2022/01/19 09:58:29;;;;;;;43.30;16.67;;;6.70;95.80;;;;;;5054686;28;20032;-77
2022/01/19 10:00:54;;;;;;;40.72;13.20;;;6.90;94.50;;;;;;5054704;28;20096;-76
2022/01/19 10:03:31;;;;;;;58.05;20.65;;;6.90;93.10;;;;;;5054069;28;20175;-76
2022/01/19 10:06:08;;;;;;;53.97;20.30;;;7.40;92.70;;;;;;5055221;28;20071;-76
2022/01/19 10:08:42;;;;;;;39.28;14.10;;;7.90;91.40;;;;;;5054780;28;20116;-77
2022/01/19 10:11:21;;;;;;;42.97;15.20;;;8.50;90.00;;;;;;5054314;28;20479;-76
2022/01/19 10:16:59;;;;;;;80.32;34.08;;;9.50;84.40;;;;;;5055093;28;20537;-77
2022/01/19 10:19:26;;;;;;;58.33;21.00;;;9.60;83.50;;;;;;5050405;28;20061;-77
2022/01/19 10:22:02;;;;;;;85.63;25.20;;;9.80;81.90;;;;;;5054903;28;20025;-76
2022/01/19 10:24:37;;;;;;;46.17;16.92;;;9.90;81.10;;;;;;5054912;28;20116;-76
2022/01/19 10:27:28;;;;;;;43.40;16.40;;;10.00;79.60;;;;;;5054965;28;20047;-77
2022/01/19 10:30:03;;;;;;;57.75;19.77;;;10.10;78.80;;;;;;5054573;28;20026;-76
2022/01/19 10:32:35;;;;;;;41.40;13.95;;;10.20;78.40;;;;;;5054837;28;20035;-76
2022/01/19 10:35:16;;;;;;;75.80;23.48;;;10.20;75.90;;;;;;5053217;28;20136;-76
2022/01/19 10:37:43;;;;;;;143.75;41.60;;;10.40;76.00;;;;;;5054048;28;20043;-75
2022/01/19 10:40:18;;;;;;;36.00;12.55;;;10.60;75.00;;;;;;5053786;28;20123;-76
2022/01/19 10:42:44;;;;;;;66.90;22.00;;;11.00;74.60;;;;;;5041173;28;20036;-76
2022/01/19 10:45:12;;;;;;;44.95;17.13;;;11.70;73.80;;;;;;5034617;28;20208;-76
2022/01/19 10:47:38;;;;;;;46.15;16.00;;;11.90;71.40;;;;;;5034363;28;20045;-76
2022/01/19 10:50:04;;;;;;;78.50;33.08;;;12.10;70.10;;;;;;5034787;28;20587;-76
2022/01/19 10:52:42;;;;;;;144.02;48.75;;;12.20;70.20;;;;;;5034103;28;20393;-76
2022/01/19 10:55:12;;;;;;;67.75;24.70;;;12.40;67.70;;;;;;5034166;28;20028;-75
2022/01/19 10:57:40;;;;;;;37.85;15.45;;;12.40;68.40;;;;;;5034165;28;20060;-76
2022/01/19 11:00:15;;;;;;;40.85;13.43;;;12.20;67.80;;;;;;5034312;28;20052;-76
2022/01/19 11:02:43;;;;;;;58.03;25.88;;;12.40;67.90;;;;;;5034445;28;20468;-76
2022/01/19 11:05:09;;;;;;;39.47;15.27;;;12.00;66.70;;;;;;5033430;28;20380;-76
2022/01/19 11:07:35;;;;;;;38.97;15.82;;;11.70;67.30;;;;;;5033789;28;20384;-76
2022/01/19 11:10:10;;;;;;;39.15;12.88;;;12.10;66.90;;;;;;5033063;28;20025;-76
2022/01/19 11:12:44;;;;;;;40.85;17.25;;;12.00;66.30;;;;;;5033348;28;20057;-76
2022/01/19 11:15:11;;;;;;;36.13;12.55;;;12.10;67.00;;;;;;5034174;28;20036;-76
2022/01/19 11:17:37;;;;;;;31.58;10.65;;;12.50;66.60;;;;;;5034016;28;20511;-76
2022/01/19 11:20:09;;;;;;;38.47;13.93;;;11.60;65.80;;;;;;5033715;28;20029;-76
2022/01/19 11:22:45;;;;;;;48.58;21.30;;;12.00;67.30;;;;;;5033934;28;20021;-76
2022/01/19 11:25:27;;;;;;;43.47;16.70;;;11.70;67.10;;;;;;5033937;28;20037;-76
2022/01/19 11:27:54;;;;;;;38.30;15.88;;;11.60;68.00;;;;;;5033707;28;20026;-76
2022/01/19 11:30:25;;;;;;;37.47;15.85;;;11.10;68.40;;;;;;5033328;28;20034;-76
2022/01/19 11:33:24;;;;;;;36.15;14.40;;;11.50;68.10;;;;;;5033491;28;20488;-76
2022/01/19 11:35:52;;;;;;;37.50;14.85;;;11.80;68.40;;;;;;5033791;28;20038;-76
2022/01/19 11:38:31;;;;;;;57.15;24.38;;;11.60;67.80;;;;;;5033845;28;20104;-76
2022/01/19 11:41:20;;;;;;;37.88;12.40;;;11.50;67.40;;;;;;5033670;28;20056;-76
2022/01/19 11:43:54;;;;;;;31.92;10.43;;;11.20;66.30;;;;;;5033130;28;20071;-76
2022/01/19 11:46:32;;;;;;;30.25;11.38;;;10.70;66.80;;;;;;5034001;28;20033;-76
2022/01/19 11:49:00;;;;;;;34.88;12.93;;;10.90;68.30;;;;;;5033171;28;20427;-77
2022/01/19 11:51:30;;;;;;;29.25;11.85;;;11.10;68.20;;;;;;5033672;28;20026;-77
2022/01/19 11:54:17;;;;;;;31.35;11.52;;;11.30;66.70;;;;;;5033719;28;20040;-76
2022/01/19 11:56:58;;;;;;;30.83;10.75;;;10.70;67.20;;;;;;5033773;28;20037;-77
2022/01/19 11:59:27;;;;;;;55.40;20.27;;;10.10;69.70;;;;;;5033598;28;20108;-76
2022/01/19 12:01:53;;;;;;;73.35;25.55;;;10.60;69.70;;;;;;5033183;28;20048;-77
2022/01/19 12:04:21;;;;;;;90.53;28.67;;;10.90;70.20;;;;;;5033582;28;20464;-76
2022/01/19 12:06:48;;;;;;;56.80;19.75;;;10.90;69.30;;;;;;5033718;28;20057;-76
2022/01/19 12:09:15;;;;;;;40.55;16.95;;;10.80;68.60;;;;;;5033559;28;20469;-77
2022/01/19 12:11:48;;;;;;;126.03;41.55;;;10.50;68.90;;;;;;5033174;28;20069;-77
2022/01/19 12:14:28;;;;;;;78.68;29.17;;;10.60;69.80;;;;;;5033838;28;20465;-76
2022/01/19 12:17:02;;;;;;;44.53;14.52;;;10.00;69.40;;;;;;5033454;28;20080;-76
2022/01/19 12:19:35;;;;;;;44.35;13.75;;;10.00;71.40;;;;;;5033558;28;20057;-76
2022/01/19 12:22:27;;;;;;;36.33;14.07;;;9.70;71.40;;;;;;5033134;28;20072;-76
2022/01/19 12:24:59;;;;;;;27.23;10.18;;;9.60;71.50;;;;;;5033243;28;20033;-77
2022/01/19 12:27:29;;;;;;;31.77;11.98;;;9.50;71.90;;;;;;5033483;28;20056;-77
2022/01/19 12:29:58;;;;;;;31.05;10.82;;;9.40;72.20;;;;;;5033231;28;20025;-77
2022/01/19 12:32:27;;;;;;;29.65;11.13;;;8.80;73.00;;;;;;5033040;28;20021;-76
2022/01/19 12:35:17;;;;;;;42.17;18.70;;;8.50;74.60;;;;;;5033356;28;20543;-77
2022/01/19 12:37:50;;;;;;;115.80;33.20;;;8.30;77.10;;;;;;5032705;28;20045;-76
2022/01/19 12:40:18;;;;;;;45.42;13.52;;;7.80;77.00;;;;;;5033362;28;20120;-77
2022/01/19 12:42:50;;;;;;;49.17;15.75;;;7.60;77.80;;;;;;5034554;28;20025;-76
2022/01/19 12:45:28;;;;;;;48.45;14.18;;;7.30;78.80;;;;;;5037251;28;20025;-76
2022/01/19 12:47:56;;;;;;;79.20;24.25;;;7.20;79.20;;;;;;5037019;28;20081;-76
2022/01/19 12:50:28;;;;;;;60.60;20.90;;;6.90;81.80;;;;;;5036501;28;20116;-76
2022/01/19 12:53:06;;;;;;;63.33;17.88;;;6.80;82.20;;;;;;5036003;28;20372;-76
2022/01/19 12:55:37;;;;;;;36.17;13.18;;;6.60;83.50;;;;;;5036984;28;20085;-77
2022/01/19 12:58:17;;;;;;;32.72;9.48;;;6.60;84.60;;;;;;5036387;28;20372;-76
2022/01/19 13:00:48;;;;;;;85.80;30.95;;;6.60;84.50;;;;;;5036406;28;20434;-76
2022/01/19 13:03:18;;;;;;;41.00;17.60;;;6.50;83.60;;;;;;5036820;28;20025;-76
2022/01/19 13:05:50;;;;;;;37.42;12.82;;;6.40;84.30;;;;;;5036536;28;20026;-77
2022/01/19 13:08:31;;;;;;;62.00;16.20;;;6.40;83.50;;;;;;5036927;28;20116;-76
2022/01/19 13:11:05;;;;;;;42.60;14.73;;;6.30;84.70;;;;;;5036697;28;20071;-76
2022/01/19 13:13:44;;;;;;;43.20;15.35;;;6.30;85.20;;;;;;5036289;28;20041;-76
2022/01/19 13:16:09;;;;;;;54.00;20.60;;;6.10;87.30;;;;;;5036525;28;20443;-76
2022/01/19 13:18:43;;;;;;;53.05;17.17;;;6.20;88.40;;;;;;5034798;28;20045;-76
2022/01/19 13:21:20;;;;;;;53.17;21.75;;;6.20;89.80;;;;;;5036312;28;20037;-76
2022/01/19 13:24:00;;;;;;;45.67;18.15;;;6.10;89.40;;;;;;5036415;28;20030;-76
2022/01/19 13:26:37;;;;;;;43.22;17.08;;;6.10;89.10;;;;;;5036213;28;20512;-76
2022/01/19 13:29:27;;;;;;;61.20;24.80;;;6.10;90.00;;;;;;5036405;28;20460;-76
2022/01/19 13:32:21;;;;;;;46.95;18.88;;;6.10;91.20;;;;;;5035828;28;20105;-76
2022/01/19 13:34:56;;;;;;;54.42;18.52;;;6.00;91.90;;;;;;5035553;28;20183;-76
2022/01/19 13:37:24;;;;;;;43.78;17.30;;;6.10;91.30;;;;;;5035712;28;20049;-76
2022/01/19 13:39:59;;;;;;;54.45;21.60;;;6.10;91.30;;;;;;5034996;28;20025;-76
2022/01/19 13:42:42;;;;;;;48.65;19.98;;;6.10;90.10;;;;;;5035913;28;20075;-76
2022/01/19 13:45:24;;;;;;;83.72;33.70;;;6.10;88.70;;;;;;5036037;28;20029;-76
2022/01/19 13:50:45;;;;;;;66.85;26.20;;;6.10;88.10;;;;;;5053717;28;20033;-76
2022/01/19 13:53:12;;;;;;;52.90;19.67;;;6.00;90.00;;;;;;5051128;28;20373;-76
2022/01/19 13:55:39;;;;;;;54.33;22.08;;;5.90;90.50;;;;;;5055029;28;20028;-76
2022/01/19 13:58:16;;;;;;;51.83;19.90;;;5.90;91.00;;;;;;5054934;28;20052;-76
2022/01/19 14:00:56;;;;;;;52.83;19.10;;;5.90;90.80;;;;;;5053379;28;20448;-76
2022/01/19 14:03:24;;;;;;;49.72;19.73;;;5.80;90.70;;;;;;5053479;28;20029;-76
2022/01/19 14:05:53;;;;;;;41.25;16.17;;;5.80;90.70;;;;;;5055065;28;20017;-76
2022/01/19 14:08:33;;;;;;;49.88;18.65;;;5.80;89.80;;;;;;5054859;28;20104;-76
2022/01/19 14:11:02;;;;;;;44.33;18.38;;;5.80;89.70;;;;;;5053471;28;20021;-75
2022/01/19 14:13:37;;;;;;;93.65;38.80;;;5.80;88.30;;;;;;5054557;28;20029;-76
2022/01/19 14:16:25;;;;;;;74.90;33.92;;;5.70;89.10;;;;;;5054980;28;20063;-76